Time;durP1;ratioP1;P1;durP2;ratioP2;P2;SDS_P1;SDS_P2;PMS_P1;PMS_P2;Temp;Humidity;BMP_temperature;BMP_pressure;BME280_temperature;BME280_humidity;BME280_pressure;Samples;Min_cycle;Max_cycle;Signal;HPM_P1;HPM_P2
2022/04/14 00:01:57;;;;;;;25.48;21.15;;;9.80;99.90;;;;;;5029879;28;20203;-48
2022/04/14 00:04:25;;;;;;;30.67;19.40;;;9.80;99.90;;;;;;5025500;28;20202;-46
2022/04/14 00:06:52;;;;;;;34.30;21.27;;;9.80;99.90;;;;;;5028425;28;20215;-50
2022/04/14 00:09:19;;;;;;;23.45;19.45;;;9.80;99.90;;;;;;5036238;28;20230;-50
2022/04/14 00:11:46;;;;;;;31.42;21.83;;;9.80;99.90;;;;;;5021885;28;20316;-54
2022/04/14 00:14:13;;;;;;;30.75;21.40;;;9.80;99.90;;;;;;5024976;28;20504;-49
2022/04/14 00:16:41;;;;;;;24.77;19.40;;;9.70;99.90;;;;;;5028157;28;20202;-50
2022/04/14 00:19:09;;;;;;;30.08;19.80;;;9.80;99.90;;;;;;5021690;28;20224;-48
2022/04/14 00:21:36;;;;;;;25.33;19.88;;;9.80;99.90;;;;;;5024308;28;20211;-46
2022/04/14 00:24:04;;;;;;;29.90;20.48;;;9.70;99.90;;;;;;5022292;28;20276;-52
2022/04/14 00:26:31;;;;;;;32.42;20.58;;;9.70;99.90;;;;;;5024213;28;20250;-53
2022/04/14 00:28:58;;;;;;;28.95;20.83;;;9.70;99.90;;;;;;5025128;28;20255;-49
2022/04/14 00:31:25;;;;;;;26.38;19.73;;;9.70;99.90;;;;;;5021315;28;20241;-54
2022/04/14 00:33:52;;;;;;;28.80;20.52;;;9.60;99.90;;;;;;5024228;28;20236;-54
2022/04/14 00:36:20;;;;;;;29.75;20.90;;;9.60;99.90;;;;;;5023663;28;20230;-50
2022/04/14 00:38:47;;;;;;;33.15;22.63;;;9.70;99.90;;;;;;5021414;28;20232;-49
2022/04/14 00:41:14;;;;;;;33.45;19.52;;;9.70;99.90;;;;;;5025305;28;20201;-47
2022/04/14 00:43:43;;;;;;;31.98;22.20;;;9.70;99.90;;;;;;5021398;28;20391;-49
2022/04/14 00:46:10;;;;;;;38.63;20.00;;;9.70;99.90;;;;;;5022512;28;20201;-49
2022/04/14 00:48:37;;;;;;;25.27;19.65;;;9.70;99.90;;;;;;5024026;28;20222;-52
2022/04/14 00:51:07;;;;;;;29.80;21.58;;;9.60;99.90;;;;;;5022553;28;20526;-49
2022/04/14 00:53:34;;;;;;;29.02;21.13;;;9.60;99.90;;;;;;5022026;28;20242;-50
2022/04/14 00:56:02;;;;;;;25.95;20.42;;;9.50;99.90;;;;;;5024600;28;20226;-49
2022/04/14 00:58:29;;;;;;;36.40;23.88;;;9.60;99.90;;;;;;5025315;28;20231;-49
2022/04/14 01:00:56;;;;;;;35.85;19.77;;;9.50;99.90;;;;;;5024977;28;20437;-51
2022/04/14 01:03:24;;;;;;;29.15;20.90;;;9.50;99.90;;;;;;5023219;28;20225;-49
2022/04/14 01:05:53;;;;;;;32.72;22.02;;;9.60;99.90;;;;;;5029054;28;20206;-47
2022/04/14 01:08:21;;;;;;;30.00;23.25;;;9.60;99.90;;;;;;5022519;28;20226;-51
2022/04/14 01:10:49;;;;;;;25.92;20.20;;;9.50;99.90;;;;;;5020278;28;20202;-49
2022/04/14 01:13:17;;;;;;;23.40;20.05;;;9.40;99.90;;;;;;5022286;28;21149;-47
2022/04/14 01:15:48;;;;;;;27.25;19.60;;;9.40;99.90;;;;;;5025433;28;20233;-47
2022/04/14 01:18:16;;;;;;;28.30;20.27;;;9.30;99.90;;;;;;5020951;28;20221;-50
2022/04/14 01:20:46;;;;;;;28.08;20.58;;;9.40;99.90;;;;;;5020480;28;20386;-49
2022/04/14 01:23:16;;;;;;;29.33;21.25;;;9.40;99.90;;;;;;5022281;28;20227;-54
2022/04/14 01:25:43;;;;;;;32.10;21.92;;;9.30;99.90;;;;;;5023164;28;20504;-48
2022/04/14 01:28:11;;;;;;;29.02;19.42;;;9.30;99.90;;;;;;5028044;28;20226;-46
2022/04/14 01:30:38;;;;;;;28.15;18.13;;;9.20;99.90;;;;;;5024987;28;20480;-47
2022/04/14 01:33:06;;;;;;;28.40;19.98;;;9.40;99.90;;;;;;5026747;28;20501;-46
2022/04/14 01:35:33;;;;;;;27.33;19.10;;;9.60;99.90;;;;;;5024597;28;20226;-49
2022/04/14 01:38:00;;;;;;;24.75;19.75;;;9.60;99.90;;;;;;5026227;28;20299;-50
2022/04/14 01:40:28;;;;;;;27.65;18.90;;;9.40;99.90;;;;;;5024641;28;20210;-50
2022/04/14 01:42:55;;;;;;;21.98;17.45;;;9.40;99.90;;;;;;5025710;28;20234;-48
2022/04/14 01:45:23;;;;;;;23.73;18.50;;;9.50;99.90;;;;;;5025134;28;20202;-46
2022/04/14 01:47:51;;;;;;;27.67;18.15;;;9.50;99.90;;;;;;5025241;28;20421;-46
2022/04/14 01:50:19;;;;;;;25.58;18.70;;;9.30;99.90;;;;;;5025027;28;20375;-53
2022/04/14 01:52:46;;;;;;;24.20;17.42;;;9.20;99.90;;;;;;5024684;28;20444;-50
2022/04/14 01:55:13;;;;;;;28.67;18.05;;;9.30;99.90;;;;;;5028729;28;20251;-50
2022/04/14 01:57:41;;;;;;;28.10;19.08;;;9.30;99.90;;;;;;5024353;28;20218;-49
2022/04/14 02:00:09;;;;;;;22.05;16.40;;;9.20;99.90;;;;;;5026253;28;20206;-49
2022/04/14 02:02:38;;;;;;;27.50;18.92;;;9.20;99.90;;;;;;5056027;28;20205;-50
2022/04/14 02:05:10;;;;;;;25.15;18.15;;;9.00;99.90;;;;;;5025990;28;20234;-46
2022/04/14 02:07:37;;;;;;;30.23;20.25;;;9.00;99.90;;;;;;5024449;28;20280;-53
2022/04/14 02:10:05;;;;;;;33.72;20.05;;;9.00;99.90;;;;;;5025773;28;20202;-49
2022/04/14 02:12:33;;;;;;;21.77;17.85;;;9.00;99.90;;;;;;5024408;28;20239;-49
2022/04/14 02:15:01;;;;;;;28.17;19.05;;;9.00;99.90;;;;;;5028993;28;20306;-52
2022/04/14 02:17:28;;;;;;;25.20;16.70;;;8.90;99.90;;;;;;5028082;28;20199;-50
2022/04/14 02:19:56;;;;;;;28.15;21.30;;;8.80;99.90;;;;;;5023918;28;20202;-50
2022/04/14 02:22:23;;;;;;;27.42;19.42;;;8.80;99.90;;;;;;5024255;28;20413;-47
2022/04/14 02:24:50;;;;;;;28.42;19.83;;;8.80;99.90;;;;;;5026370;28;20205;-50
2022/04/14 02:27:17;;;;;;;27.13;20.73;;;8.90;99.90;;;;;;5025879;28;20253;-49
2022/04/14 02:29:44;;;;;;;26.83;21.10;;;8.90;99.90;;;;;;5024104;28;20291;-51
2022/04/14 02:32:11;;;;;;;26.60;18.40;;;8.90;99.90;;;;;;5025997;28;20213;-46
2022/04/14 02:34:39;;;;;;;31.02;20.20;;;8.70;99.90;;;;;;5026425;28;20241;-51
2022/04/14 02:37:06;;;;;;;28.35;19.80;;;8.80;99.90;;;;;;5027865;28;20443;-48
2022/04/14 02:39:37;;;;;;;23.20;17.38;;;8.80;99.90;;;;;;5024143;28;20217;-51
2022/04/14 02:42:04;;;;;;;31.05;20.42;;;8.90;99.90;;;;;;5025672;28;20300;-50
2022/04/14 02:44:31;;;;;;;25.48;18.30;;;8.80;99.90;;;;;;5024229;28;20201;-51
2022/04/14 02:46:58;;;;;;;28.80;17.90;;;8.80;99.90;;;;;;5025329;28;20248;-50
2022/04/14 02:49:25;;;;;;;29.20;19.85;;;8.90;99.90;;;;;;5029626;28;20233;-51
2022/04/14 02:51:53;;;;;;;29.30;20.73;;;9.00;99.90;;;;;;5027804;28;20233;-50
2022/04/14 02:54:23;;;;;;;23.23;18.45;;;8.90;99.90;;;;;;5024512;28;20388;-48
2022/04/14 02:56:50;;;;;;;25.17;19.70;;;8.80;99.90;;;;;;5023925;28;20233;-49
2022/04/14 02:59:17;;;;;;;27.08;21.23;;;8.70;99.90;;;;;;5024219;28;20266;-48
2022/04/14 03:01:45;;;;;;;22.52;17.70;;;8.60;99.90;;;;;;5023503;28;20247;-50
2022/04/14 03:04:12;;;;;;;30.67;17.40;;;8.60;99.90;;;;;;5025573;28;20205;-53
2022/04/14 03:06:39;;;;;;;25.80;19.45;;;8.60;99.90;;;;;;5023881;28;20209;-47
2022/04/14 03:09:07;;;;;;;29.63;20.45;;;8.70;99.90;;;;;;5025867;28;20267;-52
2022/04/14 03:11:34;;;;;;;31.08;18.73;;;8.50;99.90;;;;;;5026134;28;20518;-51
2022/04/14 03:14:01;;;;;;;19.75;17.60;;;8.50;99.90;;;;;;5033697;28;20208;-49
2022/04/14 03:16:29;;;;;;;29.17;19.08;;;8.50;99.90;;;;;;5028076;28;20264;-47
2022/04/14 03:18:56;;;;;;;23.85;17.83;;;8.40;99.90;;;;;;5023543;28;20571;-49
2022/04/14 03:21:23;;;;;;;23.17;18.50;;;8.50;99.90;;;;;;5024583;28;20308;-47
2022/04/14 03:23:50;;;;;;;35.95;21.38;;;8.40;99.90;;;;;;5025445;28;20228;-48
2022/04/14 03:26:18;;;;;;;27.45;18.77;;;8.30;99.90;;;;;;5023802;28;20296;-50
2022/04/14 03:28:45;;;;;;;26.08;19.27;;;8.30;99.90;;;;;;5021777;28;20229;-49
2022/04/14 03:31:12;;;;;;;28.23;19.38;;;8.30;99.90;;;;;;5028030;28;20254;-50
2022/04/14 03:33:40;;;;;;;24.52;18.98;;;8.20;99.90;;;;;;5023355;28;20255;-46
2022/04/14 03:36:07;;;;;;;27.83;18.67;;;8.20;99.90;;;;;;5025006;28;20244;-51
2022/04/14 03:38:34;;;;;;;28.70;19.80;;;8.20;99.90;;;;;;5023371;28;20229;-49
2022/04/14 03:41:06;;;;;;;29.58;19.20;;;8.20;99.90;;;;;;5025285;28;20220;-49
2022/04/14 03:43:36;;;;;;;25.92;18.55;;;8.10;99.90;;;;;;5023317;28;20189;-48
2022/04/14 03:46:04;;;;;;;26.83;18.95;;;8.00;99.90;;;;;;5025328;28;20201;-49
2022/04/14 03:48:31;;;;;;;24.20;21.05;;;8.00;99.90;;;;;;5025516;28;20221;-49
2022/04/14 03:50:59;;;;;;;32.45;20.15;;;7.90;99.90;;;;;;5024282;28;20248;-48
2022/04/14 03:53:29;;;;;;;28.10;20.23;;;7.90;99.90;;;;;;5023228;28;20205;-49
2022/04/14 03:55:57;;;;;;;24.90;20.00;;;7.70;99.90;;;;;;5027183;28;20223;-49
2022/04/14 03:58:24;;;;;;;28.13;21.33;;;7.80;99.90;;;;;;5024027;28;20455;-51
2022/04/14 04:00:52;;;;;;;33.78;20.55;;;8.00;99.90;;;;;;5024274;28;20205;-48
2022/04/14 04:03:19;;;;;;;30.40;19.63;;;7.90;99.90;;;;;;5041485;28;20238;-51
2022/04/14 04:05:46;;;;;;;31.40;21.02;;;7.90;99.90;;;;;;5040085;28;20207;-47
2022/04/14 04:08:14;;;;;;;23.50;17.88;;;8.00;99.90;;;;;;5040138;28;20224;-48
2022/04/14 04:10:45;;;;;;;30.08;22.17;;;8.00;99.90;;;;;;5039750;28;20573;-50
2022/04/14 04:13:12;;;;;;;26.95;18.60;;;8.00;99.90;;;;;;5040483;28;20438;-50
2022/04/14 04:15:40;;;;;;;29.00;19.52;;;8.10;99.90;;;;;;5040086;28;20582;-49
2022/04/14 04:18:07;;;;;;;26.70;20.08;;;7.80;99.90;;;;;;5040634;28;20270;-48
2022/04/14 04:20:34;;;;;;;31.50;19.40;;;8.00;99.90;;;;;;5040331;28;20200;-50
2022/04/14 04:23:05;;;;;;;36.17;19.63;;;8.10;99.90;;;;;;5039922;28;20260;-47
2022/04/14 04:25:32;;;;;;;23.13;19.83;;;8.20;99.90;;;;;;5039838;28;20238;-50
2022/04/14 04:27:59;;;;;;;34.95;20.80;;;8.10;99.90;;;;;;5039794;28;20555;-49
2022/04/14 04:30:30;;;;;;;22.65;17.55;;;8.20;99.90;;;;;;5040175;28;20201;-47
2022/04/14 04:32:57;;;;;;;23.08;17.63;;;8.20;99.90;;;;;;5039704;28;20213;-47
2022/04/14 04:35:25;;;;;;;35.90;20.38;;;8.50;99.90;;;;;;5039873;28;20220;-49
2022/04/14 04:37:52;;;;;;;33.33;18.98;;;8.50;99.90;;;;;;5039100;28;20224;-46
2022/04/14 04:40:21;;;;;;;23.77;16.98;;;8.60;99.90;;;;;;5039041;28;20279;-52
2022/04/14 04:42:49;;;;;;;32.85;19.42;;;8.70;99.90;;;;;;5043656;28;20549;-50
2022/04/14 04:45:16;;;;;;;26.98;18.98;;;8.60;99.90;;;;;;5042386;28;20196;-50
2022/04/14 04:47:43;;;;;;;24.15;18.05;;;8.70;99.90;;;;;;5054876;28;20224;-48
2022/04/14 04:50:10;;;;;;;27.88;19.10;;;9.00;99.90;;;;;;5059812;28;20261;-50
2022/04/14 04:52:38;;;;;;;29.35;18.52;;;9.00;99.90;;;;;;5060430;28;20399;-50
2022/04/14 04:55:05;;;;;;;27.60;17.05;;;9.20;99.90;;;;;;5051173;28;20204;-48
2022/04/14 04:57:33;;;;;;;24.98;17.92;;;9.50;99.90;;;;;;5053740;28;20224;-50
2022/04/14 05:00:00;;;;;;;29.75;16.95;;;9.40;99.90;;;;;;5059798;28;20518;-49
2022/04/14 05:02:28;;;;;;;23.92;17.45;;;9.40;99.90;;;;;;5061990;28;20192;-45
2022/04/14 05:04:55;;;;;;;27.17;17.65;;;9.50;99.90;;;;;;5036204;28;20243;-54
2022/04/14 05:07:23;;;;;;;20.20;16.10;;;9.50;99.90;;;;;;5051273;28;20210;-47
2022/04/14 05:09:50;;;;;;;32.83;18.85;;;9.50;99.90;;;;;;5043203;28;20206;-51
2022/04/14 05:12:17;;;;;;;24.65;17.67;;;9.60;99.90;;;;;;5046882;28;20251;-49
2022/04/14 05:14:44;;;;;;;31.50;19.85;;;9.70;99.90;;;;;;5044649;28;20207;-49
2022/04/14 05:17:12;;;;;;;23.05;18.60;;;9.80;99.90;;;;;;5048830;28;20464;-54
2022/04/14 05:19:39;;;;;;;27.60;18.23;;;9.80;99.90;;;;;;5047549;28;20521;-49
2022/04/14 05:22:07;;;;;;;25.10;17.75;;;9.80;99.90;;;;;;5054186;28;20216;-50
2022/04/14 05:24:34;;;;;;;32.15;18.10;;;9.80;99.90;;;;;;5057827;28;20498;-53
2022/04/14 05:27:02;;;;;;;25.77;17.25;;;10.00;99.90;;;;;;5063712;28;20246;-51
2022/04/14 05:29:30;;;;;;;24.52;18.05;;;10.30;99.90;;;;;;5063187;28;20225;-48
2022/04/14 05:31:57;;;;;;;20.50;16.38;;;10.40;99.90;;;;;;5063658;28;20210;-50
2022/04/14 05:34:25;;;;;;;22.50;17.80;;;10.50;99.90;;;;;;5062256;28;20214;-48
2022/04/14 05:36:52;;;;;;;29.23;19.02;;;10.40;99.90;;;;;;5063357;28;20222;-51
2022/04/14 05:39:19;;;;;;;24.17;17.63;;;10.70;99.90;;;;;;5063341;28;20418;-50
2022/04/14 05:41:47;;;;;;;21.42;17.50;;;10.90;99.90;;;;;;5062793;28;20244;-47
2022/04/14 05:44:17;;;;;;;22.73;18.10;;;11.30;99.90;;;;;;5063124;28;20266;-51
2022/04/14 05:46:44;;;;;;;20.25;17.00;;;11.70;99.90;;;;;;5067656;28;20206;-54
2022/04/14 05:49:11;;;;;;;23.95;18.55;;;11.80;99.90;;;;;;5070808;28;20230;-48
2022/04/14 05:51:39;;;;;;;22.83;18.40;;;12.10;99.90;;;;;;5063154;28;20514;-47
2022/04/14 05:54:06;;;;;;;19.60;17.00;;;12.40;99.90;;;;;;5062670;28;20372;-49
2022/04/14 05:56:33;;;;;;;24.00;18.92;;;12.60;99.90;;;;;;5062829;28;20510;-51
2022/04/14 05:59:01;;;;;;;22.70;17.73;;;12.70;99.90;;;;;;5062862;28;20530;-50
2022/04/14 06:01:28;;;;;;;21.95;15.63;;;12.90;99.90;;;;;;5062580;28;20199;-46
2022/04/14 06:03:56;;;;;;;21.52;17.33;;;13.20;99.90;;;;;;5062289;28;20241;-49
2022/04/14 06:06:23;;;;;;;22.20;17.42;;;13.60;99.90;;;;;;5062950;28;20457;-49
2022/04/14 06:08:50;;;;;;;26.17;17.08;;;14.00;99.90;;;;;;5061853;28;20241;-51
2022/04/14 06:11:18;;;;;;;24.58;16.60;;;14.10;99.90;;;;;;5062729;28;20200;-46
2022/04/14 06:13:45;;;;;;;25.20;17.02;;;14.70;99.90;;;;;;5061353;28;20204;-51
2022/04/14 06:16:12;;;;;;;18.80;15.67;;;15.00;99.90;;;;;;5062556;28;20269;-51
2022/04/14 06:18:46;;;;;;;20.40;15.43;;;15.30;99.90;;;;;;5062443;28;20805;-48
2022/04/14 06:21:13;;;;;;;20.70;13.57;;;15.90;99.90;;;;;;5062631;28;20400;-49
2022/04/14 06:23:41;;;;;;;22.17;16.87;;;16.70;99.90;;;;;;5062665;28;20442;-50
2022/04/14 06:26:08;;;;;;;21.73;16.73;;;17.70;99.90;;;;;;5061891;28;20465;-49
2022/04/14 06:28:36;;;;;;;18.47;15.20;;;18.30;99.90;;;;;;5062428;28;20451;-52
2022/04/14 06:31:03;;;;;;;16.50;14.70;;;18.90;99.90;;;;;;5062226;28;20411;-49
2022/04/14 06:33:31;;;;;;;21.93;14.70;;;19.10;99.90;;;;;;5062407;28;20463;-54
2022/04/14 06:36:02;;;;;;;20.23;15.30;;;19.70;99.90;;;;;;5061584;28;20460;-48
2022/04/14 06:38:32;;;;;;;20.33;15.23;;;20.20;99.20;;;;;;5061647;28;20479;-49
2022/04/14 06:41:00;;;;;;;24.10;14.57;;;21.10;97.10;;;;;;5061962;28;20413;-48
2022/04/14 06:43:30;;;;;;;17.90;13.83;;;21.80;95.70;;;;;;5062211;28;20431;-49
2022/04/14 06:45:59;;;;;;;18.60;14.73;;;22.20;94.10;;;;;;5062180;28;20431;-48
2022/04/14 06:48:26;;;;;;;18.43;14.40;;;22.30;92.80;;;;;;5062230;28;20452;-48
2022/04/14 06:50:53;;;;;;;15.07;11.90;;;22.60;92.50;;;;;;5047653;28;20444;-49
2022/04/14 06:53:20;;;;;;;16.13;12.57;;;22.90;91.00;;;;;;5053702;28;20440;-49
2022/04/14 06:55:48;;;;;;;20.57;12.67;;;23.00;90.00;;;;;;5061757;28;20411;-50
2022/04/14 06:58:15;;;;;;;20.47;14.07;;;23.40;90.40;;;;;;5061122;28;20456;-50
2022/04/14 07:00:43;;;;;;;17.10;12.67;;;24.30;86.70;;;;;;5061450;28;20433;-47
2022/04/14 07:03:10;;;;;;;20.03;11.77;;;24.00;84.30;;;;;;5061639;28;20478;-47
2022/04/14 07:05:37;;;;;;;16.03;12.50;;;24.70;82.00;;;;;;5061637;28;20440;-54
2022/04/14 07:08:04;;;;;;;15.50;11.57;;;25.50;79.20;;;;;;5061322;28;21215;-51
2022/04/14 07:10:34;;;;;;;19.20;11.30;;;25.40;78.30;;;;;;5061731;28;20459;-48
2022/04/14 07:13:06;;;;;;;14.00;11.47;;;25.60;76.30;;;;;;5061401;28;20421;-46
2022/04/14 07:15:33;;;;;;;27.83;11.80;;;26.40;74.70;;;;;;5061494;28;20491;-51
2022/04/14 07:18:01;;;;;;;16.90;11.90;;;26.40;72.60;;;;;;5046445;28;20508;-48
2022/04/14 07:20:30;;;;;;;15.73;11.00;;;26.20;72.90;;;;;;5043122;28;20446;-49
2022/04/14 07:22:59;;;;;;;16.90;12.17;;;25.70;74.30;;;;;;5041010;28;20466;-51
2022/04/14 07:25:29;;;;;;;20.23;11.50;;;25.40;74.00;;;;;;5038829;28;20503;-48
2022/04/14 07:27:56;;;;;;;13.70;10.77;;;25.40;74.50;;;;;;5043201;28;20708;-48
2022/04/14 07:30:24;;;;;;;11.37;10.27;;;25.10;74.00;;;;;;5041944;28;20544;-50
2022/04/14 07:32:52;;;;;;;13.20;10.00;;;25.40;74.20;;;;;;5040776;28;20437;-49
2022/04/14 07:35:22;;;;;;;13.83;10.80;;;25.60;74.80;;;;;;5020891;28;20428;-51
2022/04/14 07:37:50;;;;;;;18.87;11.73;;;26.00;74.30;;;;;;5033335;28;20535;-47
2022/04/14 07:40:19;;;;;;;13.67;10.73;;;27.30;72.20;;;;;;5036173;28;20512;-49
2022/04/14 07:42:46;;;;;;;15.40;10.43;;;27.70;69.40;;;;;;5038181;28;20666;-53
2022/04/14 07:45:15;;;;;;;11.80;10.60;;;27.00;70.50;;;;;;5032114;28;20436;-51
2022/04/14 07:47:44;;;;;;;11.33;9.77;;;27.10;69.90;;;;;;5034235;28;20462;-52
2022/04/14 07:50:14;;;;;;;14.70;9.47;;;27.20;69.70;;;;;;5031470;28;20471;-48
2022/04/14 07:52:45;;;;;;;16.77;10.00;;;27.30;70.90;;;;;;5032602;28;20764;-48
2022/04/14 07:55:24;;;;;;;14.43;9.17;;;28.10;67.70;;;;;;5037653;28;21352;-48
2022/04/14 07:57:53;;;;;;;10.00;7.33;;;27.70;67.70;;;;;;5020296;28;20480;-50
2022/04/14 08:00:21;;;;;;;13.73;9.30;;;27.80;68.20;;;;;;5020488;28;20665;-50
2022/04/14 08:02:50;;;;;;;10.63;8.33;;;27.70;67.20;;;;;;5019472;28;20510;-50
2022/04/14 08:05:17;;;;;;;10.83;9.20;;;28.10;67.40;;;;;;5026933;28;20508;-50
2022/04/14 08:07:44;;;;;;;13.70;8.60;;;28.80;65.80;;;;;;5051190;28;20468;-51
2022/04/14 08:10:18;;;;;;;11.00;8.67;;;29.10;63.10;;;;;;5060457;28;20755;-48
2022/04/14 08:12:47;;;;;;;8.30;7.57;;;28.90;61.90;;;;;;5060189;28;20449;-48
2022/04/14 08:15:15;;;;;;;12.90;8.00;;;29.60;63.10;;;;;;5035466;28;20462;-53
2022/04/14 08:17:43;;;;;;;12.10;9.23;;;29.70;61.90;;;;;;5046410;28;20476;-48
2022/04/14 08:20:12;;;;;;;8.70;6.80;;;29.00;61.30;;;;;;5059998;28;20439;-50
2022/04/14 08:22:57;;;;;;;10.80;8.40;;;27.70;62.30;;;;;;5060331;28;20436;-50
2022/04/14 08:25:34;;;;;;;12.30;9.07;;;27.40;63.30;;;;;;5060080;28;20427;-51
2022/04/14 08:28:05;;;;;;;10.77;7.80;;;27.50;63.30;;;;;;5059634;28;20552;-51
2022/04/14 08:30:40;;;;;;;10.23;6.87;;;27.80;63.00;;;;;;5042593;28;20469;-53
2022/04/14 08:33:13;;;;;;;6.70;5.83;;;28.60;61.30;;;;;;5042794;28;20479;-49
2022/04/14 08:35:41;;;;;;;7.00;5.30;;;29.40;59.50;;;;;;5034802;28;20517;-47
2022/04/14 08:38:11;;;;;;;6.47;5.23;;;30.20;56.70;;;;;;5037531;28;20795;-49
2022/04/14 08:40:41;;;;;;;7.87;5.53;;;30.60;55.30;;;;;;5038572;28;20484;-52
2022/04/14 08:43:33;;;;;;;10.83;5.20;;;30.50;55.60;;;;;;5038890;28;20645;-55
2022/04/14 08:46:03;;;;;;;6.30;3.90;;;31.30;53.90;;;;;;5048729;28;20437;-52
2022/04/14 08:48:31;;;;;;;8.23;4.73;;;30.80;53.70;;;;;;5029275;28;20477;-51
2022/04/14 08:50:59;;;;;;;6.67;5.67;;;31.00;53.70;;;;;;5024718;28;20451;-49
2022/04/14 08:53:30;;;;;;;5.40;4.67;;;31.80;52.40;;;;;;5034036;28;20659;-48
2022/04/14 08:55:58;;;;;;;7.60;4.50;;;31.80;51.40;;;;;;5051055;28;20433;-48
2022/04/14 08:58:28;;;;;;;4.40;3.80;;;31.10;51.80;;;;;;5060323;28;20481;-51
2022/04/14 09:00:56;;;;;;;6.53;5.10;;;30.30;52.10;;;;;;5065370;28;20729;-54
2022/04/14 09:03:43;;;;;;;5.30;4.17;;;30.60;51.70;;;;;;5067133;28;20418;-54
2022/04/14 09:06:12;;;;;;;5.87;4.67;;;30.30;52.10;;;;;;5067252;28;20447;-53
2022/04/14 09:08:40;;;;;;;5.77;4.50;;;30.70;52.90;;;;;;5066403;28;20453;-53
2022/04/14 09:11:08;;;;;;;6.23;5.03;;;31.00;52.10;;;;;;5042733;28;20459;-53
2022/04/14 09:13:37;;;;;;;8.23;4.57;;;31.40;51.90;;;;;;5030466;28;20447;-52
2022/04/14 09:16:05;;;;;;;5.20;4.70;;;32.00;49.80;;;;;;5040927;28;20491;-51
2022/04/14 09:18:33;;;;;;;13.37;5.50;;;31.70;51.70;;;;;;5038462;28;20482;-51
2022/04/14 09:21:05;;;;;;;7.93;4.93;;;32.20;50.20;;;;;;5039265;28;20470;-50
2022/04/14 09:23:33;;;;;;;6.60;4.53;;;32.20;49.90;;;;;;5039592;28;20421;-54
2022/04/14 09:26:03;;;;;;;12.40;6.20;;;31.40;50.20;;;;;;5038585;28;20541;-50
2022/04/14 09:28:30;;;;;;;7.60;6.07;;;29.60;52.10;;;;;;5039117;28;20646;-53
2022/04/14 09:31:05;;;;;;;10.43;6.40;;;28.30;54.60;;;;;;5038832;28;20434;-50
2022/04/14 09:33:35;;;;;;;4.50;4.03;;;27.50;55.80;;;;;;5039024;28;20441;-52
2022/04/14 09:36:10;;;;;;;5.60;4.60;;;26.70;56.20;;;;;;5039025;28;20438;-52
2022/04/14 09:38:59;;;;;;;5.33;3.93;;;26.10;57.10;;;;;;5039044;28;20476;-53
2022/04/14 09:41:30;;;;;;;6.90;4.57;;;25.70;58.00;;;;;;5039133;28;20456;-47
2022/04/14 09:44:03;;;;;;;6.30;5.20;;;25.30;59.90;;;;;;5039344;28;20421;-47
2022/04/14 09:46:31;;;;;;;6.40;4.80;;;24.70;59.60;;;;;;5044439;28;20430;-51
2022/04/14 09:49:05;;;;;;;12.63;5.10;;;24.50;60.90;;;;;;5052914;28;20455;-48
2022/04/14 09:51:33;;;;;;;10.00;5.67;;;24.20;61.20;;;;;;5062849;28;20422;-54
2022/04/14 09:54:05;;;;;;;5.03;3.53;;;24.20;61.40;;;;;;5062283;28;20791;-51
2022/04/14 09:56:51;;;;;;;4.20;3.80;;;24.10;60.20;;;;;;5062491;28;20470;-49
2022/04/14 09:59:22;;;;;;;10.43;4.80;;;23.70;62.50;;;;;;5062567;28;20466;-47
2022/04/14 10:02:08;;;;;;;4.40;3.90;;;23.50;61.50;;;;;;5062199;28;20429;-50
2022/04/14 10:04:47;;;;;;;5.13;3.63;;;23.30;61.90;;;;;;5061973;28;20444;-50
2022/04/14 10:07:20;;;;;;;6.43;4.37;;;23.30;61.10;;;;;;5062395;28;20436;-51
2022/04/14 10:09:50;;;;;;;4.10;3.63;;;23.20;62.40;;;;;;5061888;28;20445;-47
2022/04/14 10:12:17;;;;;;;5.80;3.13;;;23.30;62.40;;;;;;5060556;28;20436;-49
2022/04/14 10:15:07;;;;;;;6.23;4.43;;;23.20;63.10;;;;;;5045566;28;20426;-52
2022/04/14 10:17:39;;;;;;;5.63;3.93;;;23.10;63.70;;;;;;5041688;28;20703;-54
2022/04/14 10:20:14;;;;;;;3.70;3.40;;;23.00;64.50;;;;;;5030990;28;21116;-51
2022/04/14 10:22:42;;;;;;;13.33;4.80;;;23.20;64.00;;;;;;5031337;28;20438;-49
2022/04/14 10:25:09;;;;;;;8.70;3.83;;;23.30;66.20;;;;;;5038727;28;20416;-50
2022/04/14 10:27:37;;;;;;;6.77;4.80;;;23.30;63.80;;;;;;5021303;28;20466;-52
2022/04/14 10:30:06;;;;;;;4.87;4.20;;;23.40;64.70;;;;;;5039270;28;20446;-51
2022/04/14 10:32:34;;;;;;;5.20;3.80;;;23.40;63.50;;;;;;5041621;28;20761;-47
2022/04/14 10:35:05;;;;;;;5.20;3.87;;;23.30;62.80;;;;;;5042013;28;20438;-51
2022/04/14 10:37:42;;;;;;;4.60;4.20;;;23.00;64.50;;;;;;5041803;28;20711;-49
2022/04/14 10:40:11;;;;;;;4.40;3.30;;;23.00;64.30;;;;;;5042007;28;20556;-48
2022/04/14 10:42:45;;;;;;;4.87;4.40;;;22.80;63.90;;;;;;5041484;28;20597;-49
2022/04/14 10:45:17;;;;;;;6.33;4.13;;;22.80;63.90;;;;;;5036451;28;20757;-50
2022/04/14 10:47:54;;;;;;;7.73;3.87;;;22.80;63.40;;;;;;5043032;28;20449;-50
2022/04/14 10:50:30;;;;;;;7.37;5.03;;;22.70;66.20;;;;;;5041977;28;20660;-51
2022/04/14 10:53:08;;;;;;;4.40;3.80;;;22.80;65.00;;;;;;5041594;28;20437;-52
2022/04/14 10:55:41;;;;;;;4.83;4.43;;;22.90;64.20;;;;;;5041223;28;20501;-51
2022/04/14 10:58:28;;;;;;;5.40;3.90;;;22.80;64.40;;;;;;5040627;28;20477;-49
2022/04/14 11:00:59;;;;;;;4.37;3.90;;;22.90;66.20;;;;;;5039656;28;20479;-53
2022/04/14 11:03:47;;;;;;;4.67;3.87;;;22.90;63.80;;;;;;5041338;28;20421;-52
2022/04/14 11:06:57;;;;;;;5.13;3.83;;;23.00;64.70;;;;;;5041601;28;20788;-52
2022/04/14 11:09:42;;;;;;;6.50;4.10;;;23.20;62.80;;;;;;5040838;28;20496;-48
2022/04/14 11:12:13;;;;;;;4.07;3.63;;;23.00;64.70;;;;;;5041090;28;20426;-48
2022/04/14 11:14:58;;;;;;;5.03;3.60;;;22.80;63.80;;;;;;5039740;28;20434;-50
2022/04/14 11:17:36;;;;;;;7.37;3.80;;;22.80;63.90;;;;;;5039126;28;20850;-53
2022/04/14 11:20:19;;;;;;;5.10;3.97;;;22.90;65.00;;;;;;5052679;28;20433;-47
2022/04/14 11:23:15;;;;;;;3.77;3.27;;;23.00;62.80;;;;;;5038840;28;20442;-50
2022/04/14 11:25:44;;;;;;;6.80;4.27;;;23.00;63.80;;;;;;5040590;28;20434;-54
2022/04/14 11:28:17;;;;;;;7.00;5.30;;;23.00;63.50;;;;;;5051738;28;20549;-47
2022/04/14 11:30:45;;;;;;;6.17;4.13;;;23.00;65.30;;;;;;5050089;28;20412;-50
2022/04/14 11:33:36;;;;;;;7.17;6.10;;;23.00;65.70;;;;;;5060145;28;20441;-53
2022/04/14 11:36:26;;;;;;;4.67;4.10;;;23.20;65.30;;;;;;5042666;28;20455;-50
2022/04/14 11:39:05;;;;;;;8.40;3.90;;;23.10;63.60;;;;;;5045467;28;20485;-53
2022/04/14 11:41:35;;;;;;;5.43;3.43;;;22.90;63.50;;;;;;5040694;28;20584;-53
2022/04/14 11:44:06;;;;;;;5.80;4.40;;;22.90;64.00;;;;;;5040452;28;20451;-50
2022/04/14 11:46:37;;;;;;;7.60;4.07;;;22.80;62.60;;;;;;5040244;28;20434;-50
2022/04/14 11:49:06;;;;;;;5.00;4.37;;;22.80;63.60;;;;;;5040442;28;20456;-50
2022/04/14 11:51:39;;;;;;;4.43;4.00;;;22.80;63.80;;;;;;5036826;28;20434;-50
2022/04/14 11:54:06;;;;;;;6.20;4.87;;;22.90;62.70;;;;;;5045704;28;20648;-53
2022/04/14 11:57:01;;;;;;;3.70;3.40;;;23.00;61.70;;;;;;5051839;28;20445;-48
2022/04/14 11:59:42;;;;;;;3.97;3.63;;;22.90;62.20;;;;;;5058820;28;20464;-51
2022/04/14 12:02:11;;;;;;;2.80;2.60;;;23.00;61.00;;;;;;5038730;28;20731;-52
2022/04/14 12:04:43;;;;;;;3.93;3.00;;;23.20;60.90;;;;;;5047012;28;20496;-53
2022/04/14 12:07:13;;;;;;;7.33;4.83;;;23.30;60.30;;;;;;5051654;28;20472;-53
2022/04/14 12:09:43;;;;;;;5.20;3.97;;;23.40;60.20;;;;;;5053474;28;20690;-49
2022/04/14 12:12:14;;;;;;;4.23;3.47;;;23.50;59.50;;;;;;5050546;28;20475;-51
2022/04/14 12:14:42;;;;;;;5.10;3.07;;;23.30;59.50;;;;;;5058514;28;20501;-50
2022/04/14 12:17:10;;;;;;;2.80;2.60;;;23.40;62.10;;;;;;5058071;28;20486;-51
2022/04/14 12:20:08;;;;;;;5.17;3.10;;;23.50;61.20;;;;;;5046443;28;20818;-48
2022/04/14 12:22:36;;;;;;;4.73;3.40;;;23.60;59.30;;;;;;5044618;28;20442;-50
2022/04/14 12:25:06;;;;;;;3.33;2.70;;;23.60;59.50;;;;;;5055599;28;20499;-47
2022/04/14 12:27:34;;;;;;;4.97;3.70;;;23.60;59.50;;;;;;5027135;28;21166;-47
2022/04/14 12:30:11;;;;;;;3.80;3.10;;;23.80;60.60;;;;;;5024759;28;20462;-49
2022/04/14 12:32:44;;;;;;;4.93;3.57;;;23.70;59.60;;;;;;5042038;28;20478;-51
2022/04/14 12:35:28;;;;;;;9.70;3.50;;;23.60;59.70;;;;;;5037537;28;20692;-51
2022/04/14 12:38:21;;;;;;;6.03;3.77;;;23.60;60.60;;;;;;5037496;28;20469;-49
2022/04/14 12:41:05;;;;;;;3.00;2.70;;;23.80;59.10;;;;;;5037908;28;20432;-50
2022/04/14 12:43:41;;;;;;;3.40;3.10;;;23.80;59.60;;;;;;5037591;28;20504;-54
2022/04/14 12:46:35;;;;;;;5.80;2.47;;;23.70;57.80;;;;;;5037899;28;20763;-48
2022/04/14 12:49:10;;;;;;;5.13;2.70;;;23.50;58.10;;;;;;5036464;28;20457;-54
2022/04/14 12:51:54;;;;;;;2.90;2.70;;;23.40;59.90;;;;;;5037748;28;20487;-53
2022/04/14 12:54:25;;;;;;;2.90;2.50;;;23.40;59.30;;;;;;5037923;28;20436;-49